sensor_id;sensor_type;location;lat;lon;timestamp;temperature;humidity
59303;DHT22;45074;52.764;6.896;2022-08-19T00:01:10;16.60;99.90
59303;DHT22;45074;52.764;6.896;2022-08-19T00:08:28;17.80;99.90
59303;DHT22;45074;52.764;6.896;2022-08-19T00:10:54;17.40;99.90
59303;DHT22;45074;52.764;6.896;2022-08-19T00:18:12;17.40;99.90
59303;DHT22;45074;52.764;6.896;2022-08-19T00:20:37;15.60;99.90
59303;DHT22;45074;52.764;6.896;2022-08-19T00:23:06;17.30;99.90
59303;DHT22;45074;52.764;6.896;2022-08-19T00:25:32;16.60;99.90
59303;DHT22;45074;52.764;6.896;2022-08-19T00:27:59;17.40;99.90
59303;DHT22;45074;52.764;6.896;2022-08-19T00:30:25;18.40;99.90
59303;DHT22;45074;52.764;6.896;2022-08-19T00:32:53;16.60;99.90
59303;DHT22;45074;52.764;6.896;2022-08-19T00:35:20;15.40;99.90
59303;DHT22;45074;52.764;6.896;2022-08-19T00:37:48;15.80;99.90
59303;DHT22;45074;52.764;6.896;2022-08-19T00:40:15;17.00;99.90
59303;DHT22;45074;52.764;6.896;2022-08-19T00:42:41;17.00;99.90
59303;DHT22;45074;52.764;6.896;2022-08-19T00:45:17;17.00;99.90
59303;DHT22;45074;52.764;6.896;2022-08-19T00:47:44;18.40;99.90
59303;DHT22;45074;52.764;6.896;2022-08-19T00:50:14;16.10;99.90
59303;DHT22;45074;52.764;6.896;2022-08-19T00:52:43;16.90;99.90
59303;DHT22;45074;52.764;6.896;2022-08-19T00:55:16;16.80;99.90
59303;DHT22;45074;52.764;6.896;2022-08-19T00:57:51;17.00;99.90
59303;DHT22;45074;52.764;6.896;2022-08-19T01:00:20;17.30;99.90
59303;DHT22;45074;52.764;6.896;2022-08-19T01:05:20;17.20;99.90
59303;DHT22;45074;52.764;6.896;2022-08-19T01:07:48;16.80;99.90
59303;DHT22;45074;52.764;6.896;2022-08-19T01:10:19;16.40;99.90
59303;DHT22;45074;52.764;6.896;2022-08-19T01:12:46;16.70;99.90
59303;DHT22;45074;52.764;6.896;2022-08-19T01:15:21;17.20;99.90
59303;DHT22;45074;52.764;6.896;2022-08-19T01:17:48;16.90;99.90
59303;DHT22;45074;52.764;6.896;2022-08-19T01:20:17;17.20;99.90
59303;DHT22;45074;52.764;6.896;2022-08-19T01:22:50;16.90;99.90
59303;DHT22;45074;52.764;6.896;2022-08-19T01:25:20;16.70;99.90
59303;DHT22;45074;52.764;6.896;2022-08-19T01:27:49;17.90;99.90
59303;DHT22;45074;52.764;6.896;2022-08-19T01:30:21;17.20;99.90
59303;DHT22;45074;52.764;6.896;2022-08-19T01:32:48;18.00;99.90
59303;DHT22;45074;52.764;6.896;2022-08-19T01:35:15;16.70;99.90
59303;DHT22;45074;52.764;6.896;2022-08-19T01:37:57;16.50;99.90
59303;DHT22;45074;52.764;6.896;2022-08-19T01:40:25;16.20;99.90
59303;DHT22;45074;52.764;6.896;2022-08-19T01:42:52;18.10;99.90
59303;DHT22;45074;52.764;6.896;2022-08-19T01:45:20;16.50;99.90
59303;DHT22;45074;52.764;6.896;2022-08-19T01:47:47;16.40;99.90
59303;DHT22;45074;52.764;6.896;2022-08-19T01:50:13;16.60;99.90
59303;DHT22;45074;52.764;6.896;2022-08-19T01:52:40;16.70;99.90
59303;DHT22;45074;52.764;6.896;2022-08-19T01:55:10;17.20;99.90
59303;DHT22;45074;52.764;6.896;2022-08-19T01:57:37;16.70;99.90
59303;DHT22;45074;52.764;6.896;2022-08-19T02:00:08;16.40;99.90
59303;DHT22;45074;52.764;6.896;2022-08-19T02:02:34;16.90;99.90
59303;DHT22;45074;52.764;6.896;2022-08-19T02:05:00;17.50;99.90
59303;DHT22;45074;52.764;6.896;2022-08-19T02:07:26;16.40;99.90
59303;DHT22;45074;52.764;6.896;2022-08-19T02:09:53;16.30;99.90
59303;DHT22;45074;52.764;6.896;2022-08-19T02:12:20;17.10;99.90
59303;DHT22;45074;52.764;6.896;2022-08-19T02:19:38;16.30;99.90
59303;DHT22;45074;52.764;6.896;2022-08-19T02:22:04;16.20;99.90
59303;DHT22;45074;52.764;6.896;2022-08-19T02:24:30;16.40;99.90
59303;DHT22;45074;52.764;6.896;2022-08-19T02:26:55;16.30;99.90
59303;DHT22;45074;52.764;6.896;2022-08-19T02:29:21;14.90;99.90
59303;DHT22;45074;52.764;6.896;2022-08-19T02:31:47;14.60;99.90
59303;DHT22;45074;52.764;6.896;2022-08-19T02:34:13;16.40;99.90
59303;DHT22;45074;52.764;6.896;2022-08-19T02:36:39;17.10;99.90
59303;DHT22;45074;52.764;6.896;2022-08-19T02:39:04;15.20;99.90
59303;DHT22;45074;52.764;6.896;2022-08-19T02:41:32;17.50;99.90
59303;DHT22;45074;52.764;6.896;2022-08-19T02:44:00;16.00;99.90
59303;DHT22;45074;52.764;6.896;2022-08-19T02:46:29;16.10;99.90
59303;DHT22;45074;52.764;6.896;2022-08-19T02:48:57;16.60;99.90
59303;DHT22;45074;52.764;6.896;2022-08-19T02:51:27;16.00;99.90
59303;DHT22;45074;52.764;6.896;2022-08-19T02:53:53;16.00;99.90
59303;DHT22;45074;52.764;6.896;2022-08-19T02:56:20;16.90;99.90
59303;DHT22;45074;52.764;6.896;2022-08-19T02:58:46;16.00;99.90
59303;DHT22;45074;52.764;6.896;2022-08-19T03:01:24;15.90;99.90
59303;DHT22;45074;52.764;6.896;2022-08-19T03:03:51;13.70;99.90
59303;DHT22;45074;52.764;6.896;2022-08-19T03:06:17;15.00;99.90
59303;DHT22;45074;52.764;6.896;2022-08-19T03:08:44;15.80;99.90
59303;DHT22;45074;52.764;6.896;2022-08-19T03:11:16;16.80;99.90
59303;DHT22;45074;52.764;6.896;2022-08-19T03:16:09;15.70;99.90
59303;DHT22;45074;52.764;6.896;2022-08-19T03:18:35;15.80;99.90
59303;DHT22;45074;52.764;6.896;2022-08-19T03:21:01;17.30;99.90
59303;DHT22;45074;52.764;6.896;2022-08-19T03:23:26;15.50;99.90
59303;DHT22;45074;52.764;6.896;2022-08-19T03:25:53;14.90;99.90
59303;DHT22;45074;52.764;6.896;2022-08-19T03:28:20;15.70;99.90
59303;DHT22;45074;52.764;6.896;2022-08-19T03:31:04;15.50;99.90
59303;DHT22;45074;52.764;6.896;2022-08-19T03:33:31;15.40;99.90
59303;DHT22;45074;52.764;6.896;2022-08-19T03:36:12;15.50;99.90
59303;DHT22;45074;52.764;6.896;2022-08-19T03:38:41;15.60;99.90
59303;DHT22;45074;52.764;6.896;2022-08-19T03:41:11;15.50;99.90
59303;DHT22;45074;52.764;6.896;2022-08-19T03:43:39;15.50;99.90
59303;DHT22;45074;52.764;6.896;2022-08-19T03:46:08;14.20;99.90
59303;DHT22;45074;52.764;6.896;2022-08-19T03:48:35;17.20;99.90
59303;DHT22;45074;52.764;6.896;2022-08-19T03:51:02;15.50;99.90
59303;DHT22;45074;52.764;6.896;2022-08-19T03:53:29;15.70;99.90
59303;DHT22;45074;52.764;6.896;2022-08-19T03:55:55;15.40;99.90
59303;DHT22;45074;52.764;6.896;2022-08-19T03:58:22;15.40;99.90
59303;DHT22;45074;52.764;6.896;2022-08-19T04:00:48;15.10;99.90
59303;DHT22;45074;52.764;6.896;2022-08-19T04:03:15;15.30;99.90
59303;DHT22;45074;52.764;6.896;2022-08-19T04:05:40;15.70;99.90
59303;DHT22;45074;52.764;6.896;2022-08-19T04:08:06;15.40;99.90
59303;DHT22;45074;52.764;6.896;2022-08-19T04:10:36;15.50;99.90
59303;DHT22;45074;52.764;6.896;2022-08-19T04:13:04;14.50;99.90
59303;DHT22;45074;52.764;6.896;2022-08-19T04:15:31;15.00;99.90
59303;DHT22;45074;52.764;6.896;2022-08-19T04:18:01;14.80;99.90
59303;DHT22;45074;52.764;6.896;2022-08-19T04:27:45;14.00;99.90
59303;DHT22;45074;52.764;6.896;2022-08-19T04:30:13;16.60;99.90
59303;DHT22;45074;52.764;6.896;2022-08-19T04:32:38;15.30;99.90
59303;DHT22;45074;52.764;6.896;2022-08-19T04:35:04;15.20;99.90
59303;DHT22;45074;52.764;6.896;2022-08-19T04:37:31;13.70;99.90
59303;DHT22;45074;52.764;6.896;2022-08-19T04:39:59;15.60;99.90
59303;DHT22;45074;52.764;6.896;2022-08-19T04:42:54;15.50;99.90
59303;DHT22;45074;52.764;6.896;2022-08-19T04:45:20;15.30;99.90
59303;DHT22;45074;52.764;6.896;2022-08-19T04:47:45;15.40;99.90
59303;DHT22;45074;52.764;6.896;2022-08-19T04:52:38;13.90;99.90
59303;DHT22;45074;52.764;6.896;2022-08-19T04:55:09;15.20;99.90
59303;DHT22;45074;52.764;6.896;2022-08-19T04:57:36;15.10;99.90
59303;DHT22;45074;52.764;6.896;2022-08-19T05:00:05;15.20;99.90
59303;DHT22;45074;52.764;6.896;2022-08-19T05:02:31;15.40;99.90
59303;DHT22;45074;52.764;6.896;2022-08-19T05:04:58;15.20;99.90
59303;DHT22;45074;52.764;6.896;2022-08-19T05:07:26;15.20;99.90
59303;DHT22;45074;52.764;6.896;2022-08-19T05:09:52;15.30;99.90
59303;DHT22;45074;52.764;6.896;2022-08-19T05:12:18;15.60;99.90
59303;DHT22;45074;52.764;6.896;2022-08-19T05:14:45;15.60;99.90
59303;DHT22;45074;52.764;6.896;2022-08-19T05:19:38;15.50;99.90
59303;DHT22;45074;52.764;6.896;2022-08-19T05:22:23;15.60;99.90
59303;DHT22;45074;52.764;6.896;2022-08-19T05:24:58;15.50;99.90
59303;DHT22;45074;52.764;6.896;2022-08-19T05:27:25;15.90;99.90
59303;DHT22;45074;52.764;6.896;2022-08-19T05:32:17;16.00;99.90
59303;DHT22;45074;52.764;6.896;2022-08-19T05:34:43;14.30;99.90
59303;DHT22;45074;52.764;6.896;2022-08-19T05:37:08;15.80;99.90
59303;DHT22;45074;52.764;6.896;2022-08-19T05:39:36;16.20;99.90
59303;DHT22;45074;52.764;6.896;2022-08-19T05:42:05;15.80;99.90
59303;DHT22;45074;52.764;6.896;2022-08-19T05:44:34;15.80;99.90
59303;DHT22;45074;52.764;6.896;2022-08-19T05:47:02;17.40;99.90
59303;DHT22;45074;52.764;6.896;2022-08-19T05:49:32;15.90;99.90
59303;DHT22;45074;52.764;6.896;2022-08-19T05:51:57;16.40;99.90
59303;DHT22;45074;52.764;6.896;2022-08-19T05:54:25;16.40;99.90
59303;DHT22;45074;52.764;6.896;2022-08-19T05:56:51;16.80;99.90
59303;DHT22;45074;52.764;6.896;2022-08-19T05:59:19;14.50;99.90
59303;DHT22;45074;52.764;6.896;2022-08-19T06:01:48;16.50;99.90
59303;DHT22;45074;52.764;6.896;2022-08-19T06:04:16;16.30;99.90
59303;DHT22;45074;52.764;6.896;2022-08-19T06:06:44;15.50;99.90
59303;DHT22;45074;52.764;6.896;2022-08-19T06:09:10;15.10;99.90
59303;DHT22;45074;52.764;6.896;2022-08-19T06:11:43;16.30;99.90
59303;DHT22;45074;52.764;6.896;2022-08-19T06:14:15;15.10;99.90
59303;DHT22;45074;52.764;6.896;2022-08-19T06:16:42;16.40;99.90
59303;DHT22;45074;52.764;6.896;2022-08-19T06:19:12;17.30;99.90
59303;DHT22;45074;52.764;6.896;2022-08-19T06:21:40;16.60;99.90
59303;DHT22;45074;52.764;6.896;2022-08-19T06:24:09;17.00;99.90
59303;DHT22;45074;52.764;6.896;2022-08-19T06:26:37;16.80;99.90
59303;DHT22;45074;52.764;6.896;2022-08-19T06:29:05;16.30;99.90
59303;DHT22;45074;52.764;6.896;2022-08-19T06:31:33;16.80;99.90
59303;DHT22;45074;52.764;6.896;2022-08-19T06:34:04;16.00;99.90
59303;DHT22;45074;52.764;6.896;2022-08-19T06:36:36;18.80;99.90
59303;DHT22;45074;52.764;6.896;2022-08-19T06:39:08;17.70;99.90
59303;DHT22;45074;52.764;6.896;2022-08-19T06:41:40;17.80;99.90
59303;DHT22;45074;52.764;6.896;2022-08-19T06:44:06;17.90;99.90
59303;DHT22;45074;52.764;6.896;2022-08-19T06:48:58;16.70;99.90
59303;DHT22;45074;52.764;6.896;2022-08-19T06:51:24;18.60;99.90
59303;DHT22;45074;52.764;6.896;2022-08-19T06:53:52;18.50;99.90
59303;DHT22;45074;52.764;6.896;2022-08-19T06:56:21;19.20;99.90
59303;DHT22;45074;52.764;6.896;2022-08-19T06:58:47;18.30;99.90
59303;DHT22;45074;52.764;6.896;2022-08-19T07:01:16;18.60;99.90
59303;DHT22;45074;52.764;6.896;2022-08-19T07:03:42;18.90;99.90
59303;DHT22;45074;52.764;6.896;2022-08-19T07:06:13;19.00;99.90
59303;DHT22;45074;52.764;6.896;2022-08-19T07:08:41;18.80;99.90
59303;DHT22;45074;52.764;6.896;2022-08-19T07:11:10;17.30;99.90
59303;DHT22;45074;52.764;6.896;2022-08-19T07:13:37;17.20;99.90
59303;DHT22;45074;52.764;6.896;2022-08-19T07:16:16;19.50;99.90
59303;DHT22;45074;52.764;6.896;2022-08-19T07:18:42;18.60;99.90
59303;DHT22;45074;52.764;6.896;2022-08-19T07:21:15;19.80;99.90
59303;DHT22;45074;52.764;6.896;2022-08-19T07:23:42;20.00;99.90
59303;DHT22;45074;52.764;6.896;2022-08-19T07:26:19;19.10;99.90
59303;DHT22;45074;52.764;6.896;2022-08-19T07:28:46;19.70;99.90
59303;DHT22;45074;52.764;6.896;2022-08-19T07:31:18;20.00;99.90
59303;DHT22;45074;52.764;6.896;2022-08-19T07:33:46;19.00;99.90
59303;DHT22;45074;52.764;6.896;2022-08-19T07:36:14;20.20;99.90
59303;DHT22;45074;52.764;6.896;2022-08-19T07:38:43;20.10;99.90
59303;DHT22;45074;52.764;6.896;2022-08-19T07:41:14;18.30;99.90
59303;DHT22;45074;52.764;6.896;2022-08-19T07:43:40;19.90;99.90
59303;DHT22;45074;52.764;6.896;2022-08-19T07:46:07;19.00;99.90
59303;DHT22;45074;52.764;6.896;2022-08-19T07:48:33;20.40;99.90
59303;DHT22;45074;52.764;6.896;2022-08-19T07:51:01;19.90;99.90
59303;DHT22;45074;52.764;6.896;2022-08-19T07:53:28;20.50;99.90
59303;DHT22;45074;52.764;6.896;2022-08-19T07:58:22;20.20;99.90
59303;DHT22;45074;52.764;6.896;2022-08-19T08:00:50;21.20;99.90
59303;DHT22;45074;52.764;6.896;2022-08-19T08:03:19;20.70;99.90
59303;DHT22;45074;52.764;6.896;2022-08-19T08:05:46;20.80;99.90
59303;DHT22;45074;52.764;6.896;2022-08-19T08:08:31;21.20;99.90
59303;DHT22;45074;52.764;6.896;2022-08-19T08:10:56;21.10;99.90
59303;DHT22;45074;52.764;6.896;2022-08-19T08:13:23;20.60;99.90
59303;DHT22;45074;52.764;6.896;2022-08-19T08:15:48;21.00;99.90
59303;DHT22;45074;52.764;6.896;2022-08-19T08:18:15;22.50;99.90
59303;DHT22;45074;52.764;6.896;2022-08-19T08:20:40;22.60;99.90
59303;DHT22;45074;52.764;6.896;2022-08-19T08:23:06;21.10;99.90
59303;DHT22;45074;52.764;6.896;2022-08-19T08:25:51;21.80;99.90
59303;DHT22;45074;52.764;6.896;2022-08-19T08:28:18;22.20;99.90
59303;DHT22;45074;52.764;6.896;2022-08-19T08:30:45;21.90;99.90
59303;DHT22;45074;52.764;6.896;2022-08-19T08:33:13;22.60;99.90
59303;DHT22;45074;52.764;6.896;2022-08-19T08:35:40;22.50;99.90
59303;DHT22;45074;52.764;6.896;2022-08-19T08:38:07;23.00;99.90
59303;DHT22;45074;52.764;6.896;2022-08-19T08:40:52;22.00;99.90
59303;DHT22;45074;52.764;6.896;2022-08-19T08:43:30;22.90;99.90
59303;DHT22;45074;52.764;6.896;2022-08-19T08:46:05;22.00;99.90
59303;DHT22;45074;52.764;6.896;2022-08-19T08:51:27;23.10;99.90
59303;DHT22;45074;52.764;6.896;2022-08-19T08:53:54;23.00;99.90
59303;DHT22;45074;52.764;6.896;2022-08-19T08:59:04;21.40;99.90
59303;DHT22;45074;52.764;6.896;2022-08-19T09:03:59;22.00;99.90
59303;DHT22;45074;52.764;6.896;2022-08-19T09:06:49;23.40;99.90
59303;DHT22;45074;52.764;6.896;2022-08-19T09:09:23;23.30;99.90
59303;DHT22;45074;52.764;6.896;2022-08-19T09:15:01;23.60;99.90
59303;DHT22;45074;52.764;6.896;2022-08-19T09:17:30;23.90;99.90
59303;DHT22;45074;52.764;6.896;2022-08-19T09:20:03;24.60;99.90
59303;DHT22;45074;52.764;6.896;2022-08-19T09:22:32;24.20;99.90
59303;DHT22;45074;52.764;6.896;2022-08-19T09:24:58;24.10;99.70
59303;DHT22;45074;52.764;6.896;2022-08-19T09:27:25;24.00;99.90
59303;DHT22;45074;52.764;6.896;2022-08-19T09:29:51;24.90;99.90
59303;DHT22;45074;52.764;6.896;2022-08-19T09:32:17;24.60;99.90
59303;DHT22;45074;52.764;6.896;2022-08-19T09:34:43;23.80;99.90
59303;DHT22;45074;52.764;6.896;2022-08-19T09:37:09;25.30;99.90
59303;DHT22;45074;52.764;6.896;2022-08-19T09:39:35;24.90;99.90
59303;DHT22;45074;52.764;6.896;2022-08-19T09:44:29;23.60;99.90
59303;DHT22;45074;52.764;6.896;2022-08-19T09:46:54;24.60;99.90
59303;DHT22;45074;52.764;6.896;2022-08-19T09:49:21;24.60;94.90
59303;DHT22;45074;52.764;6.896;2022-08-19T09:51:50;25.20;99.60
59303;DHT22;45074;52.764;6.896;2022-08-19T09:54:16;24.20;99.10
59303;DHT22;45074;52.764;6.896;2022-08-19T09:59:08;24.60;99.90
59303;DHT22;45074;52.764;6.896;2022-08-19T10:01:35;25.30;99.90
59303;DHT22;45074;52.764;6.896;2022-08-19T10:04:01;25.10;93.30
59303;DHT22;45074;52.764;6.896;2022-08-19T10:06:30;25.30;99.90
59303;DHT22;45074;52.764;6.896;2022-08-19T10:08:58;25.40;92.90
59303;DHT22;45074;52.764;6.896;2022-08-19T10:11:24;25.40;92.30
59303;DHT22;45074;52.764;6.896;2022-08-19T10:13:52;25.60;91.70
59303;DHT22;45074;52.764;6.896;2022-08-19T10:16:20;25.50;90.10
59303;DHT22;45074;52.764;6.896;2022-08-19T10:18:48;25.70;90.60
59303;DHT22;45074;52.764;6.896;2022-08-19T10:21:17;25.70;90.70
59303;DHT22;45074;52.764;6.896;2022-08-19T10:26:13;25.60;88.20
59303;DHT22;45074;52.764;6.896;2022-08-19T10:31:10;24.40;94.00
59303;DHT22;45074;52.764;6.896;2022-08-19T10:33:37;26.00;94.20
59303;DHT22;45074;52.764;6.896;2022-08-19T10:36:06;25.20;94.30
59303;DHT22;45074;52.764;6.896;2022-08-19T10:41:10;26.40;93.20
59303;DHT22;45074;52.764;6.896;2022-08-19T10:43:36;26.70;93.00
59303;DHT22;45074;52.764;6.896;2022-08-19T16:43:47;26.10;87.90
59303;DHT22;45074;52.764;6.896;2022-08-19T16:46:20;26.10;90.50
59303;DHT22;45074;52.764;6.896;2022-08-19T16:48:46;25.80;90.80
59303;DHT22;45074;52.764;6.896;2022-08-19T16:51:12;25.20;90.60
59303;DHT22;45074;52.764;6.896;2022-08-19T16:53:40;26.10;91.30
59303;DHT22;45074;52.764;6.896;2022-08-19T16:56:07;25.30;91.20
59303;DHT22;45074;52.764;6.896;2022-08-19T16:58:34;25.10;91.20
59303;DHT22;45074;52.764;6.896;2022-08-19T17:01:03;24.90;91.40
59303;DHT22;45074;52.764;6.896;2022-08-19T17:03:29;25.40;92.10
59303;DHT22;45074;52.764;6.896;2022-08-19T17:05:57;25.50;92.20
59303;DHT22;45074;52.764;6.896;2022-08-19T17:08:25;24.80;92.30
59303;DHT22;45074;52.764;6.896;2022-08-19T17:10:53;25.30;93.00
59303;DHT22;45074;52.764;6.896;2022-08-19T17:13:20;25.10;92.60
59303;DHT22;45074;52.764;6.896;2022-08-19T17:15:46;24.70;92.90
59303;DHT22;45074;52.764;6.896;2022-08-19T17:18:12;25.60;93.30
59303;DHT22;45074;52.764;6.896;2022-08-19T17:20:39;25.40;93.40
59303;DHT22;45074;52.764;6.896;2022-08-19T17:23:05;25.00;93.50
59303;DHT22;45074;52.764;6.896;2022-08-19T17:25:31;26.40;94.40
59303;DHT22;45074;52.764;6.896;2022-08-19T17:28:05;26.00;95.00
59303;DHT22;45074;52.764;6.896;2022-08-19T17:30:31;24.60;94.30
59303;DHT22;45074;52.764;6.896;2022-08-19T17:32:57;25.70;94.80
59303;DHT22;45074;52.764;6.896;2022-08-19T17:35:22;24.00;94.30
59303;DHT22;45074;52.764;6.896;2022-08-19T17:37:49;25.00;95.30
59303;DHT22;45074;52.764;6.896;2022-08-19T17:40:16;24.50;94.40
59303;DHT22;45074;52.764;6.896;2022-08-19T17:42:43;25.00;85.70
59303;DHT22;45074;52.764;6.896;2022-08-19T17:45:10;24.90;86.00
59303;DHT22;45074;52.764;6.896;2022-08-19T17:47:37;26.00;94.90
59303;DHT22;45074;52.764;6.896;2022-08-19T17:50:05;24.30;94.80
59303;DHT22;45074;52.764;6.896;2022-08-19T17:52:32;25.20;95.20
59303;DHT22;45074;52.764;6.896;2022-08-19T17:54:57;24.80;95.20
59303;DHT22;45074;52.764;6.896;2022-08-19T18:04:41;25.20;96.20
59303;DHT22;45074;52.764;6.896;2022-08-19T18:07:08;24.00;97.00
59303;DHT22;45074;52.764;6.896;2022-08-19T18:09:36;25.50;98.60
59303;DHT22;45074;52.764;6.896;2022-08-19T18:12:03;24.70;99.10
59303;DHT22;45074;52.764;6.896;2022-08-19T18:14:34;24.50;99.70
59303;DHT22;45074;52.764;6.896;2022-08-19T18:17:02;24.80;99.70
59303;DHT22;45074;52.764;6.896;2022-08-19T18:19:30;24.50;93.60
59303;DHT22;45074;52.764;6.896;2022-08-19T18:21:56;25.40;96.00
59303;DHT22;45074;52.764;6.896;2022-08-19T18:24:21;24.50;99.90
59303;DHT22;45074;52.764;6.896;2022-08-19T18:26:47;24.10;96.40
59303;DHT22;45074;52.764;6.896;2022-08-19T18:29:14;24.30;99.90
59303;DHT22;45074;52.764;6.896;2022-08-19T18:34:08;23.80;95.90
59303;DHT22;45074;52.764;6.896;2022-08-19T18:36:35;23.60;99.90
59303;DHT22;45074;52.764;6.896;2022-08-19T18:39:01;23.70;99.90
59303;DHT22;45074;52.764;6.896;2022-08-19T18:44:31;23.90;99.90
59303;DHT22;45074;52.764;6.896;2022-08-19T18:47:17;23.50;99.90
59303;DHT22;45074;52.764;6.896;2022-08-19T18:52:33;23.60;99.90
59303;DHT22;45074;52.764;6.896;2022-08-19T18:59:52;24.60;99.90
59303;DHT22;45074;52.764;6.896;2022-08-19T19:02:18;24.80;99.90
59303;DHT22;45074;52.764;6.896;2022-08-19T19:04:44;23.10;99.90
59303;DHT22;45074;52.764;6.896;2022-08-19T19:07:11;22.30;99.90
59303;DHT22;45074;52.764;6.896;2022-08-19T19:09:38;24.00;99.90
59303;DHT22;45074;52.764;6.896;2022-08-19T19:12:07;24.30;99.90
59303;DHT22;45074;52.764;6.896;2022-08-19T19:14:37;22.10;99.90
59303;DHT22;45074;52.764;6.896;2022-08-19T19:17:06;23.10;99.90
59303;DHT22;45074;52.764;6.896;2022-08-19T19:19:32;23.50;99.90
59303;DHT22;45074;52.764;6.896;2022-08-19T19:21:58;21.70;99.90
59303;DHT22;45074;52.764;6.896;2022-08-19T19:24:28;23.40;99.90
59303;DHT22;45074;52.764;6.896;2022-08-19T19:26:56;23.20;99.90
59303;DHT22;45074;52.764;6.896;2022-08-19T19:29:22;24.20;99.90
59303;DHT22;45074;52.764;6.896;2022-08-19T19:31:49;23.60;99.90
59303;DHT22;45074;52.764;6.896;2022-08-19T19:34:19;22.90;99.90
59303;DHT22;45074;52.764;6.896;2022-08-19T19:36:50;22.60;99.90
59303;DHT22;45074;52.764;6.896;2022-08-19T19:39:16;22.90;99.90
59303;DHT22;45074;52.764;6.896;2022-08-19T19:41:42;23.30;99.90
59303;DHT22;45074;52.764;6.896;2022-08-19T19:44:08;22.10;99.90
59303;DHT22;45074;52.764;6.896;2022-08-19T19:46:34;21.50;99.90
59303;DHT22;45074;52.764;6.896;2022-08-19T19:49:01;22.50;99.90
59303;DHT22;45074;52.764;6.896;2022-08-19T19:51:27;22.50;99.90
59303;DHT22;45074;52.764;6.896;2022-08-19T19:53:53;22.80;99.90
59303;DHT22;45074;52.764;6.896;2022-08-19T19:56:20;22.30;99.90
59303;DHT22;45074;52.764;6.896;2022-08-19T19:58:49;21.50;99.90
59303;DHT22;45074;52.764;6.896;2022-08-19T20:01:18;23.00;99.90
59303;DHT22;45074;52.764;6.896;2022-08-19T20:06:13;20.70;99.90
59303;DHT22;45074;52.764;6.896;2022-08-19T20:08:39;22.60;99.90
59303;DHT22;45074;52.764;6.896;2022-08-19T20:11:40;22.00;99.90
59303;DHT22;45074;52.764;6.896;2022-08-19T20:14:13;21.60;99.90
59303;DHT22;45074;52.764;6.896;2022-08-19T20:16:40;22.80;99.90
59303;DHT22;45074;52.764;6.896;2022-08-19T20:19:08;22.10;99.90
59303;DHT22;45074;52.764;6.896;2022-08-19T20:21:34;22.30;99.90
59303;DHT22;45074;52.764;6.896;2022-08-19T20:24:02;21.70;99.90
59303;DHT22;45074;52.764;6.896;2022-08-19T20:26:28;22.80;99.90
59303;DHT22;45074;52.764;6.896;2022-08-19T20:28:54;21.60;99.90
59303;DHT22;45074;52.764;6.896;2022-08-19T20:31:20;22.80;99.90
59303;DHT22;45074;52.764;6.896;2022-08-19T20:33:47;22.70;99.90
59303;DHT22;45074;52.764;6.896;2022-08-19T20:36:13;22.70;99.90
59303;DHT22;45074;52.764;6.896;2022-08-19T20:38:40;22.40;99.90
59303;DHT22;45074;52.764;6.896;2022-08-19T20:41:06;22.70;99.90
59303;DHT22;45074;52.764;6.896;2022-08-19T20:43:32;22.00;99.90
59303;DHT22;45074;52.764;6.896;2022-08-19T20:45:59;21.50;99.90
59303;DHT22;45074;52.764;6.896;2022-08-19T20:48:27;22.40;99.90
59303;DHT22;45074;52.764;6.896;2022-08-19T20:50:53;20.10;99.90
59303;DHT22;45074;52.764;6.896;2022-08-19T20:53:20;21.40;99.90
59303;DHT22;45074;52.764;6.896;2022-08-19T20:55:48;21.20;99.90
59303;DHT22;45074;52.764;6.896;2022-08-19T20:58:15;21.30;99.90
59303;DHT22;45074;52.764;6.896;2022-08-19T21:00:42;21.00;99.90
59303;DHT22;45074;52.764;6.896;2022-08-19T21:03:20;21.00;99.90
59303;DHT22;45074;52.764;6.896;2022-08-19T21:05:46;22.50;99.90
59303;DHT22;45074;52.764;6.896;2022-08-19T21:08:13;21.00;99.90
59303;DHT22;45074;52.764;6.896;2022-08-19T21:10:40;21.70;99.90
59303;DHT22;45074;52.764;6.896;2022-08-19T21:13:05;21.50;99.90
59303;DHT22;45074;52.764;6.896;2022-08-19T21:15:31;21.50;99.90
59303;DHT22;45074;52.764;6.896;2022-08-19T21:17:57;21.40;99.90
59303;DHT22;45074;52.764;6.896;2022-08-19T21:20:23;20.30;99.90
59303;DHT22;45074;52.764;6.896;2022-08-19T21:22:49;20.60;99.90
59303;DHT22;45074;52.764;6.896;2022-08-19T21:25:16;21.40;99.90
59303;DHT22;45074;52.764;6.896;2022-08-19T21:30:08;20.80;99.90
59303;DHT22;45074;52.764;6.896;2022-08-19T21:35:01;19.80;99.90
59303;DHT22;45074;52.764;6.896;2022-08-19T21:37:28;20.90;99.90
59303;DHT22;45074;52.764;6.896;2022-08-19T21:39:54;20.40;99.90
59303;DHT22;45074;52.764;6.896;2022-08-19T21:42:21;20.90;99.90
59303;DHT22;45074;52.764;6.896;2022-08-19T21:44:47;20.90;99.90
59303;DHT22;45074;52.764;6.896;2022-08-19T21:47:12;20.60;99.90
59303;DHT22;45074;52.764;6.896;2022-08-19T21:49:38;21.20;99.90
59303;DHT22;45074;52.764;6.896;2022-08-19T21:52:04;20.30;99.90
59303;DHT22;45074;52.764;6.896;2022-08-19T21:54:31;20.70;99.90
59303;DHT22;45074;52.764;6.896;2022-08-19T21:56:57;20.20;99.90
59303;DHT22;45074;52.764;6.896;2022-08-19T21:59:23;20.30;99.90
59303;DHT22;45074;52.764;6.896;2022-08-19T22:01:48;21.30;99.90
59303;DHT22;45074;52.764;6.896;2022-08-19T22:06:40;21.40;99.90
59303;DHT22;45074;52.764;6.896;2022-08-19T22:09:06;22.00;99.90
59303;DHT22;45074;52.764;6.896;2022-08-19T22:11:32;20.90;99.90
59303;DHT22;45074;52.764;6.896;2022-08-19T22:13:59;19.90;99.90
59303;DHT22;45074;52.764;6.896;2022-08-19T22:16:24;20.80;99.90
59303;DHT22;45074;52.764;6.896;2022-08-19T22:18:50;21.70;99.90
59303;DHT22;45074;52.764;6.896;2022-08-19T22:21:17;22.80;99.90
59303;DHT22;45074;52.764;6.896;2022-08-19T22:23:45;20.80;99.90
59303;DHT22;45074;52.764;6.896;2022-08-19T22:26:12;20.70;99.90
59303;DHT22;45074;52.764;6.896;2022-08-19T22:28:39;21.20;99.90
59303;DHT22;45074;52.764;6.896;2022-08-19T22:31:05;18.80;99.90
59303;DHT22;45074;52.764;6.896;2022-08-19T22:33:31;20.70;99.90
59303;DHT22;45074;52.764;6.896;2022-08-19T22:35:58;20.50;99.90
59303;DHT22;45074;52.764;6.896;2022-08-19T22:38:24;20.70;99.90
59303;DHT22;45074;52.764;6.896;2022-08-19T22:40:51;20.60;99.90
59303;DHT22;45074;52.764;6.896;2022-08-19T22:43:20;19.60;99.90
59303;DHT22;45074;52.764;6.896;2022-08-19T22:45:48;20.50;99.90
59303;DHT22;45074;52.764;6.896;2022-08-19T22:48:16;20.50;99.90
59303;DHT22;45074;52.764;6.896;2022-08-19T22:50:43;20.80;99.90
59303;DHT22;45074;52.764;6.896;2022-08-19T22:53:30;20.50;99.90
59303;DHT22;45074;52.764;6.896;2022-08-19T22:55:57;18.70;99.90
59303;DHT22;45074;52.764;6.896;2022-08-19T22:58:22;20.80;99.90
59303;DHT22;45074;52.764;6.896;2022-08-19T23:00:48;20.40;99.90
59303;DHT22;45074;52.764;6.896;2022-08-19T23:03:14;20.00;99.90
59303;DHT22;45074;52.764;6.896;2022-08-19T23:05:39;20.50;99.90